PWSweather.com
Personal Weather Stations
Station Observations
GEELONGWX1
Bell Post Hill, GeelongAU

Bell Post HillGeelongAU

Lat: -38.101, Lon: 144.326

Elevation: 204

Station Type: Davis Vantage Pro2

http://www.geelongweather.com

Latest ConditionsUpdated 7:00:01 PM GMT+10:10 Saturday, Apr 30, 2016
Currently Today's Max Today's Min Today's Average
Temperature 67.9°F19.9°C 76.4°F24.7°C 55.0°F12.8°C 64.9°F18.3°C
Dew Point 56.9°F13.8°C 60.9°F16.1°C 52.4°F11.3°C 56.3°F13.5°C
Winds 3.5 mph NW5.6 kmh NW 11.5 mph WSW18.5 kmh WSW - 3.6 mph 5.8 kmh
Wind Gusts 3.5 mph5.6 kmh 17.3 mph27.8 kmh - -
Humidity 68% 94% 52% 76%
Pressure 29.88 in1011.9 mb 30.01 in1016.3 mb 29.87 in1011.5 mb -
Precipitation - 0.01 in0.3 mm - -
Hour Temp Dew Point Humidity Winds Wind Gusts Pressure Precip Precip Rate Daily Precip Total
07:00 PM 67.9°F19.9°C 56.9°F13.8°C 68% 3.5 mph NW5.6 kmh NW 3.5 mph5.6 kmh 29.88 in1011.9 mb - 0.00 in0.0 mm 0.01 in0.3 mm
06:50 PM 68.3°F20.2°C 56.9°F13.8°C 67% 3.5 mph NW5.6 kmh NW 4.6 mph7.4 kmh 29.87 in1011.5 mb - 0.00 in0.0 mm 0.01 in0.3 mm
06:40 PM 68.7°F20.4°C 56.9°F13.8°C 66% 3.5 mph NW5.6 kmh NW 6.9 mph11.1 kmh 29.87 in1011.5 mb - 0.00 in0.0 mm 0.01 in0.3 mm
06:30 PM 69.1°F20.6°C 57.3°F14.1°C 66% 2.3 mph NW3.7 kmh NW 3.5 mph5.6 kmh 29.87 in1011.5 mb - 0.00 in0.0 mm 0.01 in0.3 mm
06:20 PM 69.4°F20.8°C 57.2°F14.0°C 65% 4.6 mph W7.4 kmh W 4.6 mph7.4 kmh 29.87 in1011.5 mb - 0.00 in0.0 mm 0.01 in0.3 mm
06:10 PM 69.8°F21.0°C 57.5°F14.2°C 65% 5.8 mph WNW9.3 kmh WNW 9.2 mph14.8 kmh 29.87 in1011.5 mb - 0.00 in0.0 mm 0.01 in0.3 mm
06:00 PM 70.1°F21.2°C 57.4°F14.1°C 64% 4.6 mph W7.4 kmh W 5.8 mph9.3 kmh 29.87 in1011.5 mb - 0.00 in0.0 mm 0.01 in0.3 mm
05:50 PM 70.6°F21.4°C 56.9°F13.8°C 62% 5.8 mph WNW9.3 kmh WNW 10.4 mph16.7 kmh 29.87 in1011.5 mb - 0.00 in0.0 mm 0.01 in0.3 mm
05:40 PM 71.0°F21.7°C 56.9°F13.8°C 61% 4.6 mph W7.4 kmh W 10.4 mph16.7 kmh 29.87 in1011.5 mb - 0.00 in0.0 mm 0.01 in0.3 mm
05:30 PM 71.6°F22.0°C 57.0°F13.9°C 60% 3.5 mph WNW5.6 kmh WNW 4.6 mph7.4 kmh 29.88 in1011.9 mb - 0.00 in0.0 mm 0.01 in0.3 mm
05:20 PM 72.1°F22.3°C 57.0°F13.9°C 59% 5.8 mph WNW9.3 kmh WNW 9.2 mph14.8 kmh 29.88 in1011.9 mb - 0.00 in0.0 mm 0.01 in0.3 mm
05:10 PM 72.5°F22.5°C 56.4°F13.6°C 57% 4.6 mph WNW7.4 kmh WNW 5.8 mph9.3 kmh 29.88 in1011.9 mb - 0.00 in0.0 mm 0.01 in0.3 mm
05:00 PM 72.7°F22.6°C 56.6°F13.7°C 57% 5.8 mph W9.3 kmh W 10.4 mph16.7 kmh 29.88 in1011.9 mb - 0.00 in0.0 mm 0.01 in0.3 mm
04:50 PM 73.1°F22.8°C 56.5°F13.6°C 56% 6.9 mph W11.1 kmh W 6.9 mph11.1 kmh 29.88 in1011.9 mb - 0.00 in0.0 mm 0.01 in0.3 mm
04:40 PM 73.3°F22.9°C 56.7°F13.7°C 56% 2.3 mph W3.7 kmh W 6.9 mph11.1 kmh 29.88 in1011.9 mb - 0.00 in0.0 mm 0.01 in0.3 mm
04:30 PM 73.6°F23.1°C 57.4°F14.1°C 57% 6.9 mph WSW11.1 kmh WSW 11.5 mph18.5 kmh 29.88 in1011.9 mb - 0.00 in0.0 mm 0.01 in0.3 mm
04:20 PM 73.6°F23.1°C 57.4°F14.1°C 57% 4.6 mph W7.4 kmh W 5.8 mph9.3 kmh 29.89 in1012.2 mb - 0.00 in0.0 mm 0.01 in0.3 mm
04:10 PM 74.2°F23.4°C 56.5°F13.6°C 54% 6.9 mph W11.1 kmh W 10.4 mph16.7 kmh 29.89 in1012.2 mb - 0.00 in0.0 mm 0.01 in0.3 mm
04:00 PM 74.4°F23.6°C 57.2°F14.0°C 55% 5.8 mph W9.3 kmh W 9.2 mph14.8 kmh 29.88 in1011.9 mb - 0.00 in0.0 mm 0.01 in0.3 mm
03:50 PM 74.9°F23.8°C 57.6°F14.2°C 55% 4.6 mph W7.4 kmh W 5.8 mph9.3 kmh 29.88 in1011.9 mb - 0.00 in0.0 mm 0.01 in0.3 mm
03:40 PM 76.4°F24.7°C 57.5°F14.2°C 52% 5.8 mph W9.3 kmh W 5.8 mph9.3 kmh 29.89 in1012.2 mb - 0.00 in0.0 mm 0.01 in0.3 mm
03:30 PM 76.0°F24.4°C 58.2°F14.6°C 54% 5.8 mph W9.3 kmh W 9.2 mph14.8 kmh 29.89 in1012.2 mb - 0.00 in0.0 mm 0.01 in0.3 mm
03:20 PM 75.8°F24.3°C 58.0°F14.4°C 54% 4.6 mph WSW7.4 kmh WSW 6.9 mph11.1 kmh 29.89 in1012.2 mb - 0.00 in0.0 mm 0.01 in0.3 mm
03:10 PM 75.8°F24.3°C 57.4°F14.1°C 53% 6.9 mph WSW11.1 kmh WSW 11.5 mph18.5 kmh 29.89 in1012.2 mb - 0.00 in0.0 mm 0.01 in0.3 mm
03:00 PM 75.9°F24.4°C 58.1°F14.5°C 54% 8.1 mph SW13.0 kmh SW 15.0 mph24.1 kmh 29.89 in1012.2 mb - 0.00 in0.0 mm 0.01 in0.3 mm
02:50 PM 75.5°F24.2°C 58.2°F14.6°C 55% 6.9 mph WSW11.1 kmh WSW 11.5 mph18.5 kmh 29.89 in1012.2 mb - 0.00 in0.0 mm 0.01 in0.3 mm
02:40 PM 74.3°F23.5°C 58.5°F14.7°C 58% 4.6 mph W7.4 kmh W 5.8 mph9.3 kmh 29.89 in1012.2 mb - 0.00 in0.0 mm 0.01 in0.3 mm
02:30 PM 73.8°F23.2°C 58.6°F14.8°C 59% 5.8 mph WNW9.3 kmh WNW 11.5 mph18.5 kmh 29.90 in1012.5 mb - 0.00 in0.0 mm 0.01 in0.3 mm
02:20 PM 74.3°F23.5°C 58.6°F14.8°C 58% 8.1 mph WSW13.0 kmh WSW 10.4 mph16.7 kmh 29.90 in1012.5 mb - 0.00 in0.0 mm 0.01 in0.3 mm
02:10 PM 74.0°F23.3°C 58.3°F14.6°C 58% 8.1 mph WSW13.0 kmh WSW 11.5 mph18.5 kmh 29.90 in1012.5 mb - 0.00 in0.0 mm 0.01 in0.3 mm
02:00 PM 74.6°F23.7°C 57.9°F14.4°C 56% 5.8 mph W9.3 kmh W 10.4 mph16.7 kmh 29.91 in1012.9 mb - 0.00 in0.0 mm 0.01 in0.3 mm
01:50 PM 75.4°F24.1°C 58.6°F14.8°C 56% 8.1 mph W13.0 kmh W 11.5 mph18.5 kmh 29.91 in1012.9 mb - 0.00 in0.0 mm 0.01 in0.3 mm
01:40 PM 75.7°F24.3°C 58.4°F14.7°C 55% 8.1 mph WSW13.0 kmh WSW 12.7 mph20.4 kmh 29.91 in1012.9 mb - 0.00 in0.0 mm 0.01 in0.3 mm
01:30 PM 75.7°F24.3°C 58.9°F14.9°C 56% 6.9 mph W11.1 kmh W 10.4 mph16.7 kmh 29.91 in1012.9 mb - 0.00 in0.0 mm 0.01 in0.3 mm
01:20 PM 75.3°F24.1°C 59.0°F15.0°C 57% 10.4 mph WSW16.7 kmh WSW 16.1 mph25.9 kmh 29.91 in1012.9 mb - 0.00 in0.0 mm 0.01 in0.3 mm
01:10 PM 75.0°F23.9°C 59.7°F15.4°C 59% 9.2 mph WSW14.8 kmh WSW 13.8 mph22.2 kmh 29.92 in1013.2 mb - 0.00 in0.0 mm 0.01 in0.3 mm
01:00 PM 74.0°F23.3°C 58.8°F14.9°C 59% 8.1 mph W13.0 kmh W 12.7 mph20.4 kmh 29.93 in1013.5 mb - 0.00 in0.0 mm 0.01 in0.3 mm
12:50 PM 73.4°F23.0°C 57.7°F14.3°C 58% 9.2 mph WSW14.8 kmh WSW 15.0 mph24.1 kmh 29.93 in1013.5 mb - 0.00 in0.0 mm 0.01 in0.3 mm
12:40 PM 74.0°F23.3°C 58.8°F14.9°C 59% 8.1 mph WSW13.0 kmh WSW 11.5 mph18.5 kmh 29.94 in1013.9 mb - 0.00 in0.0 mm 0.01 in0.3 mm
12:30 PM 74.6°F23.7°C 58.8°F14.9°C 58% 11.5 mph WSW18.5 kmh WSW 15.0 mph24.1 kmh 29.94 in1013.9 mb - 0.00 in0.0 mm 0.01 in0.3 mm
12:20 PM 73.3°F22.9°C 58.6°F14.8°C 60% 8.1 mph WSW13.0 kmh WSW 11.5 mph18.5 kmh 29.95 in1014.2 mb - 0.00 in0.0 mm 0.01 in0.3 mm
12:10 PM 73.6°F23.1°C 58.9°F14.9°C 60% 6.9 mph W11.1 kmh W 11.5 mph18.5 kmh 29.95 in1014.2 mb - 0.00 in0.0 mm 0.01 in0.3 mm
12:00 PM 74.4°F23.6°C 59.6°F15.3°C 60% 5.8 mph WNW9.3 kmh WNW 10.4 mph16.7 kmh 29.95 in1014.2 mb - 0.00 in0.0 mm 0.01 in0.3 mm
11:50 AM 74.5°F23.6°C 59.2°F15.1°C 59% 6.9 mph WSW11.1 kmh WSW 10.4 mph16.7 kmh 29.96 in1014.6 mb - 0.00 in0.0 mm 0.01 in0.3 mm
11:40 AM 74.2°F23.4°C 58.9°F14.9°C 59% 9.2 mph W14.8 kmh W 9.2 mph14.8 kmh 29.96 in1014.6 mb - 0.00 in0.0 mm 0.01 in0.3 mm
11:30 AM 74.0°F23.3°C 59.2°F15.1°C 60% 6.9 mph W11.1 kmh W 11.5 mph18.5 kmh 29.97 in1014.9 mb - 0.00 in0.0 mm 0.01 in0.3 mm
11:20 AM 73.9°F23.3°C 59.6°F15.3°C 61% 9.2 mph WNW14.8 kmh WNW 12.7 mph20.4 kmh 29.97 in1014.9 mb - 0.00 in0.0 mm 0.01 in0.3 mm
11:10 AM 73.0°F22.8°C 59.2°F15.1°C 62% 9.2 mph W14.8 kmh W 13.8 mph22.2 kmh 29.97 in1014.9 mb - 0.00 in0.0 mm 0.01 in0.3 mm
11:00 AM 71.6°F22.0°C 59.7°F15.4°C 66% 8.1 mph W13.0 kmh W 11.5 mph18.5 kmh 29.98 in1015.2 mb - 0.00 in0.0 mm 0.01 in0.3 mm
10:50 AM 71.7°F22.1°C 59.7°F15.4°C 66% 8.1 mph WSW13.0 kmh WSW 11.5 mph18.5 kmh 29.98 in1015.2 mb - 0.00 in0.0 mm 0.01 in0.3 mm
10:40 AM 71.0°F21.7°C 59.5°F15.3°C 67% 8.1 mph W13.0 kmh W 17.3 mph27.8 kmh 29.99 in1015.6 mb - 0.00 in0.0 mm 0.01 in0.3 mm
10:30 AM 71.5°F21.9°C 60.4°F15.8°C 68% 9.2 mph W14.8 kmh W 12.7 mph20.4 kmh 29.99 in1015.6 mb - 0.00 in0.0 mm 0.01 in0.3 mm
10:20 AM 71.2°F21.8°C 60.9°F16.1°C 70% 6.9 mph NW11.1 kmh NW 13.8 mph22.2 kmh 29.99 in1015.6 mb - 0.01 in0.3 mm 0.01 in0.3 mm
10:10 AM 70.1°F21.2°C 60.3°F15.7°C 71% 6.9 mph W11.1 kmh W 11.5 mph18.5 kmh 29.99 in1015.6 mb - 0.00 in0.0 mm 0.00 in0.0 mm
10:00 AM 69.6°F20.9°C 60.2°F15.7°C 72% 10.4 mph NW16.7 kmh NW 16.1 mph25.9 kmh 29.98 in1015.2 mb - 0.00 in0.0 mm 0.00 in0.0 mm
09:50 AM 69.1°F20.6°C 60.5°F15.8°C 74% 8.1 mph NW13.0 kmh NW 11.5 mph18.5 kmh 29.99 in1015.6 mb - 0.00 in0.0 mm 0.00 in0.0 mm
09:40 AM 68.4°F20.2°C 60.6°F15.9°C 76% 6.9 mph NW11.1 kmh NW 11.5 mph18.5 kmh 29.99 in1015.6 mb - 0.00 in0.0 mm 0.00 in0.0 mm
09:30 AM 67.6°F19.8°C 60.1°F15.6°C 77% 10.4 mph NW16.7 kmh NW 17.3 mph27.8 kmh 29.99 in1015.6 mb - 0.00 in0.0 mm 0.00 in0.0 mm
09:20 AM 66.7°F19.3°C 60.0°F15.6°C 79% 8.1 mph NW13.0 kmh NW 15.0 mph24.1 kmh 29.99 in1015.6 mb - 0.00 in0.0 mm 0.00 in0.0 mm
09:10 AM 65.5°F18.6°C 59.9°F15.5°C 82% 4.6 mph WNW7.4 kmh WNW 10.4 mph16.7 kmh 30.00 in1015.9 mb - 0.00 in0.0 mm 0.00 in0.0 mm
09:00 AM 62.5°F16.9°C 59.3°F15.2°C 89% 2.3 mph NW3.7 kmh NW 10.4 mph16.7 kmh 30.01 in1016.3 mb - 0.00 in0.0 mm 0.00 in0.0 mm
08:50 AM 59.8°F15.4°C 58.1°F14.5°C 94% 2.3 mph WNW3.7 kmh WNW 4.6 mph7.4 kmh 30.00 in1015.9 mb - 0.00 in0.0 mm 0.00 in0.0 mm
08:40 AM 59.0°F15.0°C 57.3°F14.1°C 94% Calm Calm -- 30.00 in1015.9 mb - 0.00 in0.0 mm 0.00 in0.0 mm
08:30 AM 58.2°F14.6°C 56.5°F13.6°C 94% Calm Calm 9.2 mph14.8 kmh 30.00 in1015.9 mb - 0.00 in0.0 mm 0.00 in0.0 mm
08:20 AM 57.6°F14.2°C 55.9°F13.3°C 94% Calm Calm -- 30.00 in1015.9 mb - 0.00 in0.0 mm 0.00 in0.0 mm
08:10 AM 57.3°F14.1°C 55.6°F13.1°C 94% Calm Calm -- 30.00 in1015.9 mb - 0.00 in0.0 mm 0.00 in0.0 mm
08:00 AM 57.1°F13.9°C 55.4°F13.0°C 94% Calm Calm -- 30.00 in1015.9 mb - 0.00 in0.0 mm 0.00 in0.0 mm
07:50 AM 57.0°F13.9°C 55.3°F12.9°C 94% Calm Calm -- 30.00 in1015.9 mb - 0.00 in0.0 mm 0.00 in0.0 mm
07:40 AM 56.8°F13.8°C 55.1°F12.8°C 94% Calm Calm -- 30.00 in1015.9 mb - 0.00 in0.0 mm 0.00 in0.0 mm
07:30 AM 56.4°F13.6°C 54.6°F12.6°C 94% Calm Calm -- 29.99 in1015.6 mb - 0.00 in0.0 mm 0.00 in0.0 mm
07:20 AM 56.0°F13.3°C 54.0°F12.2°C 93% Calm Calm -- 30.00 in1015.9 mb - 0.00 in0.0 mm 0.00 in0.0 mm
07:10 AM 56.0°F13.3°C 54.0°F12.2°C 93% Calm Calm -- 30.00 in1015.9 mb - 0.00 in0.0 mm 0.00 in0.0 mm
07:00 AM 56.0°F13.3°C 54.0°F12.2°C 93% Calm Calm -- 29.99 in1015.6 mb - 0.00 in0.0 mm 0.00 in0.0 mm
06:50 AM 55.8°F13.2°C 53.8°F12.1°C 93% Calm Calm -- 29.99 in1015.6 mb - 0.00 in0.0 mm 0.00 in0.0 mm
06:40 AM 55.8°F13.2°C 53.8°F12.1°C 93% Calm Calm -- 29.99 in1015.6 mb - 0.00 in0.0 mm 0.00 in0.0 mm
06:30 AM 55.8°F13.2°C 53.8°F12.1°C 93% Calm Calm -- 29.98 in1015.2 mb - 0.00 in0.0 mm 0.00 in0.0 mm
06:20 AM 55.8°F13.2°C 53.8°F12.1°C 93% Calm Calm -- 29.98 in1015.2 mb - 0.00 in0.0 mm 0.00 in0.0 mm
06:10 AM 55.8°F13.2°C 53.5°F11.9°C 92% Calm Calm -- 29.98 in1015.2 mb - 0.00 in0.0 mm 0.00 in0.0 mm
06:00 AM 55.9°F13.3°C 53.6°F12.0°C 92% Calm Calm -- 29.99 in1015.6 mb - 0.00 in0.0 mm 0.00 in0.0 mm
05:50 AM 56.1°F13.4°C 54.1°F12.3°C 93% Calm Calm -- 29.99 in1015.6 mb - 0.00 in0.0 mm 0.00 in0.0 mm
05:40 AM 56.1°F13.4°C 54.1°F12.3°C 93% Calm Calm -- 29.99 in1015.6 mb - 0.00 in0.0 mm 0.00 in0.0 mm
05:30 AM 56.1°F13.4°C 54.1°F12.3°C 93% Calm Calm -- 29.99 in1015.6 mb - 0.00 in0.0 mm 0.00 in0.0 mm
05:20 AM 55.9°F13.3°C 53.9°F12.2°C 93% Calm Calm -- 29.99 in1015.6 mb - 0.00 in0.0 mm 0.00 in0.0 mm
05:10 AM 55.4°F13.0°C 53.1°F11.7°C 92% Calm Calm -- 29.98 in1015.2 mb - 0.00 in0.0 mm 0.00 in0.0 mm
05:00 AM 55.0°F12.8°C 52.7°F11.5°C 92% Calm Calm -- 29.98 in1015.2 mb - 0.00 in0.0 mm 0.00 in0.0 mm
04:50 AM 55.0°F12.8°C 52.4°F11.3°C 91% Calm Calm -- 29.98 in1015.2 mb - 0.00 in0.0 mm 0.00 in0.0 mm
04:40 AM 55.0°F12.8°C 52.4°F11.3°C 91% Calm Calm -- 29.98 in1015.2 mb - 0.00 in0.0 mm 0.00 in0.0 mm
04:30 AM 55.1°F12.8°C 52.5°F11.4°C 91% Calm Calm -- 29.98 in1015.2 mb - 0.00 in0.0 mm 0.00 in0.0 mm
04:20 AM 55.2°F12.9°C 52.6°F11.4°C 91% Calm Calm -- 29.98 in1015.2 mb - 0.00 in0.0 mm 0.00 in0.0 mm
04:10 AM 55.3°F12.9°C 52.7°F11.5°C 91% Calm Calm -- 29.98 in1015.2 mb - 0.00 in0.0 mm 0.00 in0.0 mm
04:00 AM 55.4°F13.0°C 52.9°F11.6°C 91% Calm Calm -- 29.98 in1015.2 mb - 0.00 in0.0 mm 0.00 in0.0 mm
03:50 AM 55.5°F13.1°C 52.9°F11.6°C 91% Calm Calm -- 29.98 in1015.2 mb - 0.00 in0.0 mm 0.00 in0.0 mm
03:40 AM 55.7°F13.2°C 53.1°F11.7°C 91% Calm Calm -- 29.97 in1014.9 mb - 0.00 in0.0 mm 0.00 in0.0 mm
03:30 AM 55.7°F13.2°C 53.1°F11.7°C 91% Calm Calm -- 29.97 in1014.9 mb - 0.00 in0.0 mm 0.00 in0.0 mm
03:20 AM 55.7°F13.2°C 53.1°F11.7°C 91% Calm Calm -- 29.98 in1015.2 mb - 0.00 in0.0 mm 0.00 in0.0 mm
03:10 AM 55.8°F13.2°C 52.9°F11.6°C 90% Calm Calm -- 29.98 in1015.2 mb - 0.00 in0.0 mm 0.00 in0.0 mm
03:00 AM 55.8°F13.2°C 52.9°F11.6°C 90% Calm Calm -- 29.98 in1015.2 mb - 0.00 in0.0 mm 0.00 in0.0 mm
02:50 AM 56.1°F13.4°C 53.5°F11.9°C 91% Calm Calm -- 29.99 in1015.6 mb - 0.00 in0.0 mm 0.00 in0.0 mm
02:40 AM 56.1°F13.4°C 53.5°F11.9°C 91% Calm Calm -- 29.99 in1015.6 mb - 0.00 in0.0 mm 0.00 in0.0 mm
02:30 AM 56.1°F13.4°C 53.5°F11.9°C 91% Calm Calm -- 29.99 in1015.6 mb - 0.00 in0.0 mm 0.00 in0.0 mm
02:20 AM 56.0°F13.3°C 53.1°F11.7°C 90% Calm Calm -- 29.99 in1015.6 mb - 0.00 in0.0 mm 0.00 in0.0 mm
02:10 AM 56.0°F13.3°C 53.1°F11.7°C 90% Calm Calm -- 30.00 in1015.9 mb - 0.00 in0.0 mm 0.00 in0.0 mm
02:00 AM 56.0°F13.3°C 52.8°F11.6°C 89% Calm Calm -- 30.00 in1015.9 mb - 0.00 in0.0 mm 0.00 in0.0 mm
01:50 AM 56.1°F13.4°C 52.9°F11.6°C 89% Calm Calm -- 30.00 in1015.9 mb - 0.00 in0.0 mm 0.00 in0.0 mm
01:40 AM 56.2°F13.4°C 53.0°F11.7°C 89% Calm Calm -- 30.00 in1015.9 mb - 0.00 in0.0 mm 0.00 in0.0 mm
01:30 AM 56.4°F13.6°C 53.2°F11.8°C 89% Calm Calm -- 30.00 in1015.9 mb - 0.00 in0.0 mm 0.00 in0.0 mm
01:20 AM 56.6°F13.7°C 53.4°F11.9°C 89% Calm Calm -- 30.00 in1015.9 mb - 0.00 in0.0 mm 0.00 in0.0 mm
01:10 AM 56.8°F13.8°C 53.6°F12.0°C 89% Calm Calm -- 30.00 in1015.9 mb - 0.00 in0.0 mm 0.00 in0.0 mm
01:00 AM 56.8°F13.8°C 53.6°F12.0°C 89% Calm Calm -- 30.00 in1015.9 mb - 0.00 in0.0 mm 0.00 in0.0 mm
12:50 AM 56.8°F13.8°C 53.3°F11.8°C 88% Calm Calm -- 30.00 in1015.9 mb - 0.00 in0.0 mm 0.00 in0.0 mm
12:40 AM 57.0°F13.9°C 53.5°F11.9°C 88% Calm Calm -- 30.00 in1015.9 mb - 0.00 in0.0 mm 0.00 in0.0 mm
12:30 AM 57.3°F14.1°C 53.8°F12.1°C 88% Calm Calm -- 30.00 in1015.9 mb - 0.00 in0.0 mm 0.00 in0.0 mm
12:20 AM 57.7°F14.3°C 53.9°F12.2°C 87% Calm Calm -- 30.00 in1015.9 mb - 0.00 in0.0 mm 0.00 in0.0 mm
12:10 AM 58.1°F14.5°C 54.6°F12.6°C 88% Calm Calm -- 30.00 in1015.9 mb - 0.00 in0.0 mm 0.00 in0.0 mm
12:00 AM 58.4°F14.7°C 54.9°F12.7°C 88% Calm Calm -- 30.00 in1015.9 mb - 0.00 in0.0 mm 0.00 in0.0 mm